sensor_id;sensor_type;location;lat;lon;timestamp;P1;durP1;ratioP1;P2;durP2;ratioP2
20421;SDS011;10370;53.102;18.034;2022-09-28T00:03:32;29.88;;;18.92;;
20421;SDS011;10370;53.102;18.034;2022-09-28T00:08:53;29.83;;;18.35;;
20421;SDS011;10370;53.102;18.034;2022-09-28T00:14:14;26.55;;;15.27;;
20421;SDS011;10370;53.102;18.034;2022-09-28T00:19:35;24.92;;;15.70;;
20421;SDS011;10370;53.102;18.034;2022-09-28T00:24:56;27.00;;;15.70;;
20421;SDS011;10370;53.102;18.034;2022-09-28T00:30:17;26.33;;;15.25;;
20421;SDS011;10370;53.102;18.034;2022-09-28T00:35:38;27.13;;;15.57;;
20421;SDS011;10370;53.102;18.034;2022-09-28T00:40:59;27.00;;;15.95;;
20421;SDS011;10370;53.102;18.034;2022-09-28T00:46:26;28.80;;;16.33;;
20421;SDS011;10370;53.102;18.034;2022-09-28T00:51:52;26.52;;;15.98;;
20421;SDS011;10370;53.102;18.034;2022-09-28T00:57:13;25.83;;;15.77;;
20421;SDS011;10370;53.102;18.034;2022-09-28T01:02:35;28.27;;;16.27;;
20421;SDS011;10370;53.102;18.034;2022-09-28T01:07:56;27.48;;;16.08;;
20421;SDS011;10370;53.102;18.034;2022-09-28T01:13:17;24.30;;;15.43;;
20421;SDS011;10370;53.102;18.034;2022-09-28T01:24:13;25.83;;;15.63;;
20421;SDS011;10370;53.102;18.034;2022-09-28T01:29:47;27.67;;;15.13;;
20421;SDS011;10370;53.102;18.034;2022-09-28T01:40:39;26.02;;;15.05;;
20421;SDS011;10370;53.102;18.034;2022-09-28T01:51:44;28.13;;;15.57;;
20421;SDS011;10370;53.102;18.034;2022-09-28T02:02:38;25.98;;;13.95;;
20421;SDS011;10370;53.102;18.034;2022-09-28T02:13:58;22.05;;;13.93;;
20421;SDS011;10370;53.102;18.034;2022-09-28T02:19:27;20.33;;;13.40;;
20421;SDS011;10370;53.102;18.034;2022-09-28T02:24:57;23.02;;;13.57;;
20421;SDS011;10370;53.102;18.034;2022-09-28T02:30:22;21.27;;;13.07;;
20421;SDS011;10370;53.102;18.034;2022-09-28T02:35:43;21.42;;;13.27;;
20421;SDS011;10370;53.102;18.034;2022-09-28T02:41:08;23.30;;;12.82;;
20421;SDS011;10370;53.102;18.034;2022-09-28T02:52:47;22.02;;;13.55;;
20421;SDS011;10370;53.102;18.034;2022-09-28T03:04:11;22.05;;;12.88;;
20421;SDS011;10370;53.102;18.034;2022-09-28T03:09:59;19.40;;;11.25;;
20421;SDS011;10370;53.102;18.034;2022-09-28T03:15:47;18.83;;;12.00;;
20421;SDS011;10370;53.102;18.034;2022-09-28T03:21:08;18.90;;;11.02;;
20421;SDS011;10370;53.102;18.034;2022-09-28T03:26:31;17.25;;;10.80;;
20421;SDS011;10370;53.102;18.034;2022-09-28T03:31:52;18.83;;;10.85;;
20421;SDS011;10370;53.102;18.034;2022-09-28T03:37:13;18.50;;;10.88;;
20421;SDS011;10370;53.102;18.034;2022-09-28T03:42:35;18.08;;;11.05;;
20421;SDS011;10370;53.102;18.034;2022-09-28T03:47:56;18.38;;;10.90;;
20421;SDS011;10370;53.102;18.034;2022-09-28T03:53:17;20.05;;;10.65;;
20421;SDS011;10370;53.102;18.034;2022-09-28T03:58:39;17.73;;;10.38;;
20421;SDS011;10370;53.102;18.034;2022-09-28T04:04:00;19.00;;;10.20;;
20421;SDS011;10370;53.102;18.034;2022-09-28T04:09:21;16.88;;;10.18;;
20421;SDS011;10370;53.102;18.034;2022-09-28T04:14:41;17.35;;;10.00;;
20421;SDS011;10370;53.102;18.034;2022-09-28T04:20:02;16.25;;;10.35;;
20421;SDS011;10370;53.102;18.034;2022-09-28T04:25:24;17.65;;;9.90;;
20421;SDS011;10370;53.102;18.034;2022-09-28T04:30:45;15.50;;;9.45;;
20421;SDS011;10370;53.102;18.034;2022-09-28T04:36:06;16.77;;;10.07;;
20421;SDS011;10370;53.102;18.034;2022-09-28T04:41:28;14.10;;;8.88;;
20421;SDS011;10370;53.102;18.034;2022-09-28T04:46:49;14.52;;;9.68;;
20421;SDS011;10370;53.102;18.034;2022-09-28T04:52:09;15.77;;;9.30;;
20421;SDS011;10370;53.102;18.034;2022-09-28T04:57:37;15.25;;;9.52;;
20421;SDS011;10370;53.102;18.034;2022-09-28T05:02:58;15.32;;;9.85;;
20421;SDS011;10370;53.102;18.034;2022-09-28T05:08:19;15.23;;;9.80;;
20421;SDS011;10370;53.102;18.034;2022-09-28T05:13:41;16.33;;;9.82;;
20421;SDS011;10370;53.102;18.034;2022-09-28T05:19:04;16.15;;;9.85;;
20421;SDS011;10370;53.102;18.034;2022-09-28T05:24:25;18.42;;;10.32;;
20421;SDS011;10370;53.102;18.034;2022-09-28T05:29:46;14.95;;;9.57;;
20421;SDS011;10370;53.102;18.034;2022-09-28T05:35:07;15.48;;;9.65;;
20421;SDS011;10370;53.102;18.034;2022-09-28T05:40:30;18.77;;;11.43;;
20421;SDS011;10370;53.102;18.034;2022-09-28T05:45:51;18.02;;;8.07;;
20421;SDS011;10370;53.102;18.034;2022-09-28T05:51:14;15.00;;;8.43;;
20421;SDS011;10370;53.102;18.034;2022-09-28T05:56:35;16.55;;;8.10;;
20421;SDS011;10370;53.102;18.034;2022-09-28T06:01:56;14.43;;;9.40;;
20421;SDS011;10370;53.102;18.034;2022-09-28T06:07:17;24.95;;;12.75;;
20421;SDS011;10370;53.102;18.034;2022-09-28T06:12:39;20.73;;;10.60;;
20421;SDS011;10370;53.102;18.034;2022-09-28T06:18:05;30.85;;;15.40;;
20421;SDS011;10370;53.102;18.034;2022-09-28T06:23:30;20.40;;;10.65;;
20421;SDS011;10370;53.102;18.034;2022-09-28T06:28:51;19.25;;;10.18;;
20421;SDS011;10370;53.102;18.034;2022-09-28T06:34:13;33.40;;;15.90;;
20421;SDS011;10370;53.102;18.034;2022-09-28T06:39:34;31.13;;;15.90;;
20421;SDS011;10370;53.102;18.034;2022-09-28T06:44:55;18.88;;;11.35;;
20421;SDS011;10370;53.102;18.034;2022-09-28T06:50:18;22.50;;;12.73;;
20421;SDS011;10370;53.102;18.034;2022-09-28T06:55:39;17.70;;;10.70;;
20421;SDS011;10370;53.102;18.034;2022-09-28T07:01:02;24.30;;;14.85;;
20421;SDS011;10370;53.102;18.034;2022-09-28T07:06:23;19.73;;;11.10;;
20421;SDS011;10370;53.102;18.034;2022-09-28T07:11:45;20.13;;;12.52;;
20421;SDS011;10370;53.102;18.034;2022-09-28T07:17:06;17.40;;;11.15;;
20421;SDS011;10370;53.102;18.034;2022-09-28T07:22:32;16.90;;;10.23;;
20421;SDS011;10370;53.102;18.034;2022-09-28T07:28:02;17.70;;;10.77;;
20421;SDS011;10370;53.102;18.034;2022-09-28T07:33:24;18.45;;;10.77;;
20421;SDS011;10370;53.102;18.034;2022-09-28T07:38:47;17.83;;;10.82;;
20421;SDS011;10370;53.102;18.034;2022-09-28T07:44:10;19.73;;;11.30;;
20421;SDS011;10370;53.102;18.034;2022-09-28T07:49:30;16.70;;;10.93;;
20421;SDS011;10370;53.102;18.034;2022-09-28T07:54:55;22.17;;;11.90;;
20421;SDS011;10370;53.102;18.034;2022-09-28T08:00:16;21.80;;;12.45;;
20421;SDS011;10370;53.102;18.034;2022-09-28T08:05:37;28.80;;;13.57;;
20421;SDS011;10370;53.102;18.034;2022-09-28T08:10:58;21.52;;;13.32;;
20421;SDS011;10370;53.102;18.034;2022-09-28T08:16:28;24.45;;;12.70;;
20421;SDS011;10370;53.102;18.034;2022-09-28T08:28:38;23.48;;;13.73;;
20421;SDS011;10370;53.102;18.034;2022-09-28T08:34:06;19.10;;;12.50;;
20421;SDS011;10370;53.102;18.034;2022-09-28T08:39:38;22.70;;;12.13;;
20421;SDS011;10370;53.102;18.034;2022-09-28T08:45:10;21.63;;;11.50;;
20421;SDS011;10370;53.102;18.034;2022-09-28T08:50:35;18.48;;;11.38;;
20421;SDS011;10370;53.102;18.034;2022-09-28T08:56:10;16.92;;;11.85;;
20421;SDS011;10370;53.102;18.034;2022-09-28T09:01:36;26.35;;;16.30;;
20421;SDS011;10370;53.102;18.034;2022-09-28T09:30:03;18.58;;;12.70;;
20421;SDS011;10370;53.102;18.034;2022-09-28T09:35:57;27.23;;;15.15;;
20421;SDS011;10370;53.102;18.034;2022-09-28T09:52:23;16.58;;;10.45;;
20421;SDS011;10370;53.102;18.034;2022-09-28T09:57:59;17.90;;;11.82;;
20421;SDS011;10370;53.102;18.034;2022-09-28T10:08:49;17.88;;;10.15;;
20421;SDS011;10370;53.102;18.034;2022-09-28T10:14:23;15.40;;;10.23;;
20421;SDS011;10370;53.102;18.034;2022-09-28T10:19:44;17.70;;;11.07;;
20421;SDS011;10370;53.102;18.034;2022-09-28T10:25:05;16.73;;;10.25;;
20421;SDS011;10370;53.102;18.034;2022-09-28T10:30:28;14.48;;;10.00;;
20421;SDS011;10370;53.102;18.034;2022-09-28T10:35:57;21.38;;;12.52;;
20421;SDS011;10370;53.102;18.034;2022-09-28T10:41:20;26.45;;;15.02;;
20421;SDS011;10370;53.102;18.034;2022-09-28T10:46:42;14.38;;;10.00;;
20421;SDS011;10370;53.102;18.034;2022-09-28T10:52:03;33.22;;;15.68;;
20421;SDS011;10370;53.102;18.034;2022-09-28T10:57:36;18.02;;;12.60;;
20421;SDS011;10370;53.102;18.034;2022-09-28T11:02:59;23.00;;;13.40;;
20421;SDS011;10370;53.102;18.034;2022-09-28T11:08:25;21.17;;;10.98;;
20421;SDS011;10370;53.102;18.034;2022-09-28T11:13:52;20.85;;;14.43;;
20421;SDS011;10370;53.102;18.034;2022-09-28T11:24:39;15.23;;;10.55;;
20421;SDS011;10370;53.102;18.034;2022-09-28T11:30:00;13.27;;;8.73;;
20421;SDS011;10370;53.102;18.034;2022-09-28T11:35:21;21.00;;;11.75;;
20421;SDS011;10370;53.102;18.034;2022-09-28T11:40:53;17.48;;;11.23;;
20421;SDS011;10370;53.102;18.034;2022-09-28T11:46:32;16.83;;;9.90;;
20421;SDS011;10370;53.102;18.034;2022-09-28T11:52:47;14.60;;;11.00;;
20421;SDS011;10370;53.102;18.034;2022-09-28T11:58:13;9.95;;;7.47;;
20421;SDS011;10370;53.102;18.034;2022-09-28T12:03:39;9.00;;;6.75;;
20421;SDS011;10370;53.102;18.034;2022-09-28T12:20:44;13.35;;;8.77;;
20421;SDS011;10370;53.102;18.034;2022-09-28T12:26:14;17.50;;;11.13;;
20421;SDS011;10370;53.102;18.034;2022-09-28T12:31:54;11.75;;;8.77;;
20421;SDS011;10370;53.102;18.034;2022-09-28T12:50:18;10.07;;;6.50;;
20421;SDS011;10370;53.102;18.034;2022-09-28T13:23:56;8.57;;;7.40;;
20421;SDS011;10370;53.102;18.034;2022-09-28T13:29:39;11.25;;;7.63;;
20421;SDS011;10370;53.102;18.034;2022-09-28T13:35:02;16.17;;;9.82;;
20421;SDS011;10370;53.102;18.034;2022-09-28T13:58:15;11.80;;;9.57;;
20421;SDS011;10370;53.102;18.034;2022-09-28T14:03:41;12.52;;;9.20;;
20421;SDS011;10370;53.102;18.034;2022-09-28T14:14:45;12.98;;;10.70;;
20421;SDS011;10370;53.102;18.034;2022-09-28T14:20:11;14.48;;;9.52;;
20421;SDS011;10370;53.102;18.034;2022-09-28T14:25:44;14.90;;;11.05;;
20421;SDS011;10370;53.102;18.034;2022-09-28T14:31:23;18.40;;;11.95;;
20421;SDS011;10370;53.102;18.034;2022-09-28T14:36:46;14.60;;;10.90;;
20421;SDS011;10370;53.102;18.034;2022-09-28T14:42:26;14.38;;;10.35;;
20421;SDS011;10370;53.102;18.034;2022-09-28T14:48:04;10.35;;;9.25;;
20421;SDS011;10370;53.102;18.034;2022-09-28T14:53:32;29.83;;;10.10;;
20421;SDS011;10370;53.102;18.034;2022-09-28T14:58:58;14.52;;;8.20;;
20421;SDS011;10370;53.102;18.034;2022-09-28T15:04:19;13.77;;;10.50;;
20421;SDS011;10370;53.102;18.034;2022-09-28T15:09:42;15.65;;;9.93;;
20421;SDS011;10370;53.102;18.034;2022-09-28T15:15:03;12.77;;;10.05;;
20421;SDS011;10370;53.102;18.034;2022-09-28T15:20:28;14.05;;;10.07;;
20421;SDS011;10370;53.102;18.034;2022-09-28T15:25:53;14.57;;;11.35;;
20421;SDS011;10370;53.102;18.034;2022-09-28T15:31:18;20.92;;;14.48;;
20421;SDS011;10370;53.102;18.034;2022-09-28T15:36:41;22.83;;;14.55;;
20421;SDS011;10370;53.102;18.034;2022-09-28T15:42:05;7.57;;;4.68;;
20421;SDS011;10370;53.102;18.034;2022-09-28T15:47:27;4.07;;;3.67;;
20421;SDS011;10370;53.102;18.034;2022-09-28T15:58:21;5.15;;;4.22;;
20421;SDS011;10370;53.102;18.034;2022-09-28T16:03:43;7.03;;;5.35;;
20421;SDS011;10370;53.102;18.034;2022-09-28T16:09:03;7.43;;;5.50;;
20421;SDS011;10370;53.102;18.034;2022-09-28T16:14:46;6.88;;;5.72;;
20421;SDS011;10370;53.102;18.034;2022-09-28T16:20:17;8.10;;;7.20;;
20421;SDS011;10370;53.102;18.034;2022-09-28T16:25:52;18.92;;;11.32;;
20421;SDS011;10370;53.102;18.034;2022-09-28T16:36:39;9.35;;;7.20;;
20421;SDS011;10370;53.102;18.034;2022-09-28T16:42:05;9.50;;;6.70;;
20421;SDS011;10370;53.102;18.034;2022-09-28T16:47:28;10.38;;;7.90;;
20421;SDS011;10370;53.102;18.034;2022-09-28T16:52:58;10.30;;;8.27;;
20421;SDS011;10370;53.102;18.034;2022-09-28T16:58:53;11.38;;;8.55;;
20421;SDS011;10370;53.102;18.034;2022-09-28T17:04:18;17.05;;;11.80;;
20421;SDS011;10370;53.102;18.034;2022-09-28T17:09:56;15.02;;;10.70;;
20421;SDS011;10370;53.102;18.034;2022-09-28T17:15:37;13.65;;;10.20;;
20421;SDS011;10370;53.102;18.034;2022-09-28T17:21:00;23.23;;;15.55;;
20421;SDS011;10370;53.102;18.034;2022-09-28T17:26:24;18.45;;;12.63;;
20421;SDS011;10370;53.102;18.034;2022-09-28T17:31:49;16.75;;;12.10;;
20421;SDS011;10370;53.102;18.034;2022-09-28T17:37:13;22.98;;;14.10;;
20421;SDS011;10370;53.102;18.034;2022-09-28T17:42:34;21.52;;;14.50;;
20421;SDS011;10370;53.102;18.034;2022-09-28T17:47:55;28.30;;;16.70;;
20421;SDS011;10370;53.102;18.034;2022-09-28T17:53:19;19.50;;;13.27;;
20421;SDS011;10370;53.102;18.034;2022-09-28T17:58:40;22.08;;;15.32;;
20421;SDS011;10370;53.102;18.034;2022-09-28T18:04:01;23.42;;;15.32;;
20421;SDS011;10370;53.102;18.034;2022-09-28T18:09:24;15.10;;;10.98;;
20421;SDS011;10370;53.102;18.034;2022-09-28T18:14:45;17.25;;;11.32;;
20421;SDS011;10370;53.102;18.034;2022-09-28T18:20:06;21.48;;;14.45;;
20421;SDS011;10370;53.102;18.034;2022-09-28T18:25:29;22.83;;;13.23;;
20421;SDS011;10370;53.102;18.034;2022-09-28T18:30:50;22.95;;;13.88;;
20421;SDS011;10370;53.102;18.034;2022-09-28T18:36:11;38.72;;;20.88;;
20421;SDS011;10370;53.102;18.034;2022-09-28T18:41:32;30.38;;;17.75;;
20421;SDS011;10370;53.102;18.034;2022-09-28T18:46:53;22.63;;;15.15;;
20421;SDS011;10370;53.102;18.034;2022-09-28T18:52:13;22.20;;;13.85;;
20421;SDS011;10370;53.102;18.034;2022-09-28T18:57:34;16.17;;;11.43;;
20421;SDS011;10370;53.102;18.034;2022-09-28T19:02:55;15.90;;;11.52;;
20421;SDS011;10370;53.102;18.034;2022-09-28T19:08:16;18.38;;;12.95;;
20421;SDS011;10370;53.102;18.034;2022-09-28T19:13:37;15.38;;;11.27;;
20421;SDS011;10370;53.102;18.034;2022-09-28T19:18:58;15.80;;;11.65;;
20421;SDS011;10370;53.102;18.034;2022-09-28T19:24:21;17.38;;;11.90;;
20421;SDS011;10370;53.102;18.034;2022-09-28T19:29:42;16.88;;;11.45;;
20421;SDS011;10370;53.102;18.034;2022-09-28T19:35:04;17.88;;;11.18;;
20421;SDS011;10370;53.102;18.034;2022-09-28T19:40:24;15.13;;;10.85;;
20421;SDS011;10370;53.102;18.034;2022-09-28T19:45:48;20.50;;;14.68;;
20421;SDS011;10370;53.102;18.034;2022-09-28T19:51:11;17.35;;;12.55;;
20421;SDS011;10370;53.102;18.034;2022-09-28T19:56:33;16.10;;;11.25;;
20421;SDS011;10370;53.102;18.034;2022-09-28T20:01:54;17.10;;;12.35;;
20421;SDS011;10370;53.102;18.034;2022-09-28T20:07:15;14.88;;;10.32;;
20421;SDS011;10370;53.102;18.034;2022-09-28T20:12:36;16.35;;;11.20;;
20421;SDS011;10370;53.102;18.034;2022-09-28T20:17:57;15.25;;;10.35;;
20421;SDS011;10370;53.102;18.034;2022-09-28T20:23:18;19.30;;;13.45;;
20421;SDS011;10370;53.102;18.034;2022-09-28T20:28:41;22.42;;;14.60;;
20421;SDS011;10370;53.102;18.034;2022-09-28T20:34:02;29.02;;;18.88;;
20421;SDS011;10370;53.102;18.034;2022-09-28T20:39:25;21.55;;;14.35;;
20421;SDS011;10370;53.102;18.034;2022-09-28T20:44:45;18.35;;;12.00;;
20421;SDS011;10370;53.102;18.034;2022-09-28T20:50:06;26.65;;;17.40;;
20421;SDS011;10370;53.102;18.034;2022-09-28T20:55:27;34.67;;;19.38;;
20421;SDS011;10370;53.102;18.034;2022-09-28T21:00:48;27.35;;;18.77;;
20421;SDS011;10370;53.102;18.034;2022-09-28T21:06:09;22.08;;;14.63;;
20421;SDS011;10370;53.102;18.034;2022-09-28T21:11:31;18.55;;;11.38;;
20421;SDS011;10370;53.102;18.034;2022-09-28T21:16:54;16.33;;;10.82;;
20421;SDS011;10370;53.102;18.034;2022-09-28T21:22:15;24.35;;;15.18;;
20421;SDS011;10370;53.102;18.034;2022-09-28T21:27:37;18.10;;;11.82;;
20421;SDS011;10370;53.102;18.034;2022-09-28T21:32:57;19.67;;;12.77;;
20421;SDS011;10370;53.102;18.034;2022-09-28T21:38:20;27.38;;;16.60;;
20421;SDS011;10370;53.102;18.034;2022-09-28T21:43:41;20.52;;;13.48;;
20421;SDS011;10370;53.102;18.034;2022-09-28T21:49:02;21.25;;;13.23;;
20421;SDS011;10370;53.102;18.034;2022-09-28T21:54:25;21.30;;;13.27;;
20421;SDS011;10370;53.102;18.034;2022-09-28T21:59:46;22.60;;;12.60;;
20421;SDS011;10370;53.102;18.034;2022-09-28T22:05:07;25.38;;;14.50;;
20421;SDS011;10370;53.102;18.034;2022-09-28T22:10:30;23.92;;;14.13;;
20421;SDS011;10370;53.102;18.034;2022-09-28T22:15:51;25.23;;;14.32;;
20421;SDS011;10370;53.102;18.034;2022-09-28T22:21:15;26.13;;;12.95;;
20421;SDS011;10370;53.102;18.034;2022-09-28T22:26:44;22.17;;;14.23;;
20421;SDS011;10370;53.102;18.034;2022-09-28T22:32:05;20.05;;;13.15;;
20421;SDS011;10370;53.102;18.034;2022-09-28T22:37:26;22.70;;;14.30;;
20421;SDS011;10370;53.102;18.034;2022-09-28T22:42:47;24.83;;;14.57;;
20421;SDS011;10370;53.102;18.034;2022-09-28T22:48:08;27.27;;;15.57;;
20421;SDS011;10370;53.102;18.034;2022-09-28T22:53:29;29.40;;;18.17;;
20421;SDS011;10370;53.102;18.034;2022-09-28T22:58:51;36.47;;;21.42;;
20421;SDS011;10370;53.102;18.034;2022-09-28T23:04:12;23.15;;;14.13;;
20421;SDS011;10370;53.102;18.034;2022-09-28T23:09:33;23.08;;;14.63;;
20421;SDS011;10370;53.102;18.034;2022-09-28T23:14:53;22.85;;;14.23;;
20421;SDS011;10370;53.102;18.034;2022-09-28T23:20:14;21.70;;;13.82;;
20421;SDS011;10370;53.102;18.034;2022-09-28T23:25:35;19.42;;;13.13;;
20421;SDS011;10370;53.102;18.034;2022-09-28T23:30:56;21.63;;;14.10;;
20421;SDS011;10370;53.102;18.034;2022-09-28T23:36:28;21.80;;;12.73;;
20421;SDS011;10370;53.102;18.034;2022-09-28T23:41:49;19.00;;;12.45;;
20421;SDS011;10370;53.102;18.034;2022-09-28T23:47:10;19.90;;;12.73;;
20421;SDS011;10370;53.102;18.034;2022-09-28T23:52:30;20.92;;;11.50;;
20421;SDS011;10370;53.102;18.034;2022-09-28T23:57:51;17.45;;;10.70;;
